createdAt,value
2022-07-26T00:01:40.996Z,2.38
2022-07-26T00:04:07.911Z,2.20
2022-07-26T00:06:34.728Z,2.47
2022-07-26T00:09:01.805Z,3.08
2022-07-26T00:11:30.331Z,2.08
2022-07-26T00:13:57.177Z,2.05
2022-07-26T00:16:24.028Z,2.30
2022-07-26T00:18:50.969Z,2.75
2022-07-26T00:21:17.780Z,2.40
2022-07-26T00:23:44.540Z,2.15
2022-07-26T00:26:11.380Z,2.00
2022-07-26T00:28:38.278Z,1.90
2022-07-26T00:31:05.334Z,2.58
2022-07-26T00:33:32.167Z,2.42
2022-07-26T00:35:58.960Z,2.28
2022-07-26T00:38:25.923Z,2.20
2022-07-26T00:40:53.148Z,2.33
2022-07-26T00:43:20.040Z,2.20
2022-07-26T00:45:46.888Z,2.50
2022-07-26T00:48:13.749Z,2.10
2022-07-26T00:50:42.524Z,2.20
2022-07-26T00:53:09.566Z,2.60
2022-07-26T00:55:36.433Z,2.22
2022-07-26T00:58:03.373Z,2.70
2022-07-26T01:00:30.272Z,2.40
2022-07-26T01:02:57.375Z,3.35
2022-07-26T01:05:24.718Z,2.33
2022-07-26T01:07:53.005Z,1.92
2022-07-26T01:10:20.253Z,2.83
2022-07-26T01:12:47.058Z,2.30
2022-07-26T01:15:15.539Z,2.45
2022-07-26T01:17:43.139Z,1.90
2022-07-26T01:20:11.906Z,2.30
2022-07-26T01:22:40.227Z,2.53
2022-07-26T01:25:07.849Z,2.42
2022-07-26T01:27:39.085Z,2.20
2022-07-26T01:30:09.848Z,2.20
2022-07-26T01:32:36.902Z,2.10
2022-07-26T01:35:05.084Z,1.90
2022-07-26T01:37:31.864Z,1.98
2022-07-26T01:39:58.640Z,2.03
2022-07-26T01:42:25.457Z,2.53
2022-07-26T01:44:52.230Z,1.83
2022-07-26T01:47:19.082Z,2.42
2022-07-26T01:49:45.797Z,1.92
2022-07-26T01:52:12.626Z,2.38
2022-07-26T01:54:39.371Z,2.30
2022-07-26T01:57:06.230Z,2.85
2022-07-26T01:59:32.991Z,2.60
2022-07-26T02:02:00.204Z,2.53
2022-07-26T02:04:45.662Z,2.35
2022-07-26T02:07:13.469Z,2.55
2022-07-26T02:09:40.477Z,2.75
2022-07-26T02:12:07.641Z,2.75
2022-07-26T02:14:34.547Z,2.00
2022-07-26T02:17:01.421Z,2.70
2022-07-26T02:19:28.745Z,2.45
2022-07-26T02:21:56.011Z,2.47
2022-07-26T02:24:23.370Z,2.67
2022-07-26T02:26:50.132Z,2.00
2022-07-26T02:29:16.889Z,2.45
2022-07-26T02:31:48.405Z,2.22
2022-07-26T02:34:16.752Z,2.42
2022-07-26T02:36:44.444Z,2.55
2022-07-26T02:39:11.351Z,2.80
2022-07-26T02:41:38.570Z,2.63
2022-07-26T02:44:06.375Z,2.17
2022-07-26T02:46:33.390Z,2.35
2022-07-26T02:49:00.854Z,1.90
2022-07-26T02:51:28.325Z,2.95
2022-07-26T02:53:55.219Z,1.83
2022-07-26T02:56:22.342Z,2.33
2022-07-26T02:58:49.104Z,2.20
2022-07-26T03:01:15.985Z,2.90
2022-07-26T03:03:47.197Z,2.28
2022-07-26T03:06:17.338Z,2.45
2022-07-26T03:08:44.136Z,2.53
2022-07-26T03:11:12.274Z,2.40
2022-07-26T03:13:39.660Z,2.50
2022-07-26T03:16:08.131Z,2.78
2022-07-26T03:18:35.027Z,2.40
2022-07-26T03:21:02.539Z,3.10
2022-07-26T03:23:33.163Z,2.45
2022-07-26T03:26:01.584Z,2.15
2022-07-26T03:28:35.784Z,3.33
2022-07-26T03:31:03.036Z,3.15
2022-07-26T03:33:30.455Z,2.83
2022-07-26T03:35:57.462Z,2.45
2022-07-26T03:38:24.333Z,3.47
2022-07-26T03:40:51.133Z,3.00
2022-07-26T03:43:22.953Z,2.80
2022-07-26T03:45:50.927Z,4.63
2022-07-26T03:48:20.985Z,3.03
2022-07-26T03:50:47.749Z,2.40
2022-07-26T03:53:14.564Z,2.60
2022-07-26T03:55:59.897Z,2.30
2022-07-26T03:58:26.655Z,2.50
2022-07-26T04:00:53.529Z,2.90
2022-07-26T04:03:22.003Z,2.90
2022-07-26T04:05:49.290Z,2.55
2022-07-26T04:08:16.965Z,2.70
2022-07-26T04:10:48.269Z,2.58
2022-07-26T04:13:15.017Z,2.83
2022-07-26T04:15:41.808Z,2.70
2022-07-26T04:18:08.606Z,2.85
2022-07-26T04:20:35.494Z,2.72
2022-07-26T04:23:02.392Z,2.80
2022-07-26T04:25:38.474Z,2.30
2022-07-26T04:28:24.387Z,2.70
2022-07-26T04:30:51.161Z,2.88
2022-07-26T04:33:18.325Z,2.95
2022-07-26T04:35:45.117Z,2.95
2022-07-26T04:38:11.876Z,2.63
2022-07-26T04:40:40.722Z,2.30
2022-07-26T04:43:08.551Z,2.67
2022-07-26T04:45:42.173Z,2.65
2022-07-26T04:48:09.072Z,2.50
2022-07-26T04:50:35.887Z,2.88
2022-07-26T04:53:04.908Z,2.83
2022-07-26T04:55:31.941Z,2.65
2022-07-26T04:57:58.837Z,2.70
2022-07-26T05:00:25.774Z,3.03
2022-07-26T05:02:55.256Z,2.35
2022-07-26T05:05:23.411Z,2.15
2022-07-26T05:07:53.486Z,2.45
2022-07-26T05:10:22.517Z,1.90
2022-07-26T05:12:49.581Z,2.22
2022-07-26T05:15:16.428Z,2.00
2022-07-26T05:17:43.630Z,2.13
2022-07-26T05:20:13.736Z,1.98
2022-07-26T05:22:40.782Z,2.13
2022-07-26T05:25:08.668Z,1.90
2022-07-26T05:27:35.955Z,2.38
2022-07-26T05:30:03.105Z,2.30
2022-07-26T05:32:29.868Z,2.38
2022-07-26T05:34:56.700Z,1.83
2022-07-26T05:37:23.494Z,1.75
2022-07-26T05:39:50.376Z,2.05
2022-07-26T05:42:17.163Z,1.60
2022-07-26T05:44:43.939Z,1.75
2022-07-26T05:47:11.523Z,1.50
2022-07-26T05:49:40.231Z,1.40
2022-07-26T05:52:08.714Z,2.90
2022-07-26T05:54:35.884Z,2.47
2022-07-26T05:57:03.140Z,1.25
2022-07-26T05:59:29.990Z,1.48
2022-07-26T06:01:57.176Z,1.00
2022-07-26T06:04:25.024Z,2.45
2022-07-26T06:06:54.696Z,1.48
2022-07-26T06:09:26.908Z,1.65
2022-07-26T06:11:53.885Z,1.73
2022-07-26T06:14:20.747Z,1.20
2022-07-26T06:16:48.145Z,0.95
2022-07-26T06:19:15.125Z,1.52
2022-07-26T06:21:46.039Z,1.27
2022-07-26T06:24:13.291Z,1.55
2022-07-26T06:26:40.410Z,1.27
2022-07-26T06:29:07.279Z,1.60
2022-07-26T06:31:34.270Z,1.67
2022-07-26T06:34:01.135Z,1.60
2022-07-26T06:36:30.808Z,1.85
2022-07-26T06:38:58.472Z,1.65
2022-07-26T06:41:25.941Z,1.60
2022-07-26T06:43:52.905Z,1.23
2022-07-26T06:46:20.984Z,1.70
2022-07-26T06:48:52.675Z,1.40
2022-07-26T06:51:20.050Z,1.17
2022-07-26T06:53:46.863Z,1.67
2022-07-26T06:56:14.926Z,1.15
2022-07-26T06:58:42.465Z,1.45
2022-07-26T07:01:09.363Z,1.20
2022-07-26T07:03:36.288Z,1.40
2022-07-26T07:06:03.491Z,1.30
2022-07-26T07:08:30.392Z,1.48
2022-07-26T07:10:57.167Z,1.45
2022-07-26T07:13:25.311Z,1.25
2022-07-26T07:15:52.208Z,1.70
2022-07-26T07:18:20.521Z,1.20
2022-07-26T07:20:47.713Z,1.25
2022-07-26T07:23:14.617Z,1.20
2022-07-26T07:25:41.704Z,1.20
2022-07-26T07:28:11.807Z,1.60
2022-07-26T07:30:38.685Z,1.35
2022-07-26T07:33:09.297Z,1.85
2022-07-26T07:35:48.949Z,1.05
2022-07-26T07:38:15.732Z,1.13
2022-07-26T07:40:42.513Z,1.25
2022-07-26T07:43:09.393Z,1.23
2022-07-26T07:45:36.201Z,0.90
2022-07-26T07:48:03.018Z,1.40
2022-07-26T07:50:29.913Z,1.40
2022-07-26T07:52:59.067Z,1.00
2022-07-26T07:55:44.064Z,1.25
2022-07-26T07:58:13.198Z,1.38
2022-07-26T08:00:41.716Z,1.33
2022-07-26T08:03:08.924Z,1.20
2022-07-26T08:05:36.067Z,1.00
2022-07-26T08:08:08.465Z,1.10
2022-07-26T08:10:35.638Z,1.08
2022-07-26T08:13:09.231Z,1.48
2022-07-26T08:15:39.276Z,1.10
2022-07-26T08:18:07.999Z,1.23
2022-07-26T08:20:35.501Z,1.10
2022-07-26T08:23:02.266Z,1.10
2022-07-26T08:25:29.139Z,1.10
2022-07-26T08:28:03.962Z,0.80
2022-07-26T08:30:32.333Z,1.00
2022-07-26T08:32:59.279Z,1.08
2022-07-26T08:35:26.176Z,0.93
2022-07-26T08:37:53.038Z,1.00
2022-07-26T08:40:19.830Z,1.05
2022-07-26T08:42:54.829Z,1.10
2022-07-26T08:45:31.432Z,0.95
2022-07-26T08:48:17.824Z,1.00
2022-07-26T08:56:04.705Z,0.65
2022-07-26T09:01:23.259Z,1.00
2022-07-26T09:03:50.144Z,1.00
2022-07-26T09:06:22.318Z,1.10
2022-07-26T09:08:53.623Z,0.98
2022-07-26T09:11:32.049Z,1.00
2022-07-26T09:14:01.809Z,0.55
2022-07-26T09:16:29.805Z,1.00
2022-07-26T09:19:22.717Z,1.10
2022-07-26T09:21:50.546Z,1.20
2022-07-26T09:24:35.343Z,1.25
2022-07-26T09:27:04.324Z,0.75
2022-07-26T09:29:41.572Z,0.98
2022-07-26T09:32:17.432Z,0.55
2022-07-26T09:35:46.020Z,0.80
2022-07-26T09:38:16.188Z,0.95
2022-07-26T09:40:44.880Z,0.75
2022-07-26T09:43:22.121Z,0.93
2022-07-26T09:46:05.045Z,0.90
2022-07-26T09:48:52.065Z,1.08
2022-07-26T09:51:46.025Z,0.80
2022-07-26T09:54:32.989Z,0.93
2022-07-26T09:57:02.414Z,0.85
2022-07-26T09:59:30.353Z,0.98
2022-07-26T10:01:58.637Z,0.70
2022-07-26T10:04:26.064Z,0.75
2022-07-26T10:06:53.196Z,1.20
2022-07-26T10:09:20.432Z,1.30
2022-07-26T10:11:55.447Z,0.70
2022-07-26T10:14:36.289Z,1.00
2022-07-26T10:17:34.888Z,0.60
2022-07-26T10:20:10.600Z,0.82
2022-07-26T10:22:46.862Z,0.85
2022-07-26T10:25:19.952Z,0.63
2022-07-26T10:27:55.533Z,0.82
2022-07-26T10:30:28.953Z,0.63
2022-07-26T10:33:02.746Z,0.65
2022-07-26T10:35:40.296Z,0.95
2022-07-26T10:38:08.556Z,0.93
2022-07-26T10:40:39.847Z,0.98
2022-07-26T10:43:40.809Z,1.00
2022-07-26T10:46:17.982Z,0.68
2022-07-26T10:49:08.755Z,0.50
2022-07-26T10:51:38.370Z,0.65
2022-07-26T10:54:05.198Z,0.60
2022-07-26T10:56:33.638Z,0.73
2022-07-26T10:59:01.114Z,0.63
2022-07-26T11:01:35.169Z,0.85
2022-07-26T11:04:02.147Z,0.57
2022-07-26T11:06:30.206Z,0.70
2022-07-26T11:08:57.011Z,0.70
2022-07-26T11:11:29.633Z,0.70
2022-07-26T11:14:11.318Z,0.70
2022-07-26T11:16:40.742Z,0.70
2022-07-26T11:19:17.239Z,1.00
2022-07-26T11:24:16.175Z,0.80
2022-07-26T11:26:45.126Z,0.98
2022-07-26T11:29:17.045Z,1.15
2022-07-26T11:31:49.404Z,0.90
2022-07-26T11:34:25.891Z,0.70
2022-07-26T11:36:55.529Z,1.03
2022-07-26T11:39:24.037Z,1.13
2022-07-26T11:41:56.321Z,0.80
2022-07-26T11:44:23.537Z,0.80
2022-07-26T11:46:51.587Z,0.98
2022-07-26T11:49:19.560Z,0.68
2022-07-26T11:51:52.039Z,0.98
2022-07-26T11:54:20.156Z,0.80
2022-07-26T11:56:55.364Z,0.70
2022-07-26T11:59:25.085Z,0.80
2022-07-26T12:01:53.119Z,0.90
2022-07-26T12:04:26.013Z,0.60
2022-07-26T12:06:54.253Z,0.60
2022-07-26T12:09:37.620Z,0.80
2022-07-26T12:12:08.023Z,0.50
2022-07-26T12:14:39.799Z,0.65
2022-07-26T12:17:13.725Z,0.70
2022-07-26T12:19:41.276Z,0.85
2022-07-26T12:22:16.117Z,0.93
2022-07-26T12:24:47.471Z,0.90
2022-07-26T12:27:21.960Z,0.90
2022-07-26T12:30:13.357Z,0.98
2022-07-26T12:32:44.779Z,1.38
2022-07-26T12:35:16.637Z,1.00
2022-07-26T12:37:46.425Z,1.10
2022-07-26T12:40:19.221Z,0.90
2022-07-26T12:42:55.821Z,0.77
2022-07-26T12:45:31.041Z,1.10
2022-07-26T12:47:59.931Z,0.90
2022-07-26T12:50:28.783Z,0.90
2022-07-26T12:53:02.530Z,1.15
2022-07-26T12:55:29.542Z,0.90
2022-07-26T12:57:57.073Z,0.93
2022-07-26T13:00:24.784Z,1.20
2022-07-26T13:02:54.765Z,0.93
2022-07-26T13:05:22.167Z,0.90
2022-07-26T13:07:51.419Z,1.00
2022-07-26T13:10:34.915Z,1.15
2022-07-26T13:13:02.345Z,1.13
2022-07-26T13:15:36.229Z,0.82
2022-07-26T13:18:08.852Z,0.88
2022-07-26T13:20:39.383Z,1.08
2022-07-26T13:23:11.534Z,1.20
2022-07-26T13:25:40.512Z,1.13
2022-07-26T13:28:08.930Z,1.40
2022-07-26T13:30:42.987Z,1.35
2022-07-26T13:33:10.390Z,1.63
2022-07-26T13:35:39.249Z,1.58
2022-07-26T13:38:08.038Z,0.98
2022-07-26T13:40:34.877Z,0.90
2022-07-26T13:43:01.661Z,1.02
2022-07-26T13:45:29.173Z,1.00
2022-07-26T13:47:58.778Z,1.08
2022-07-26T13:50:27.270Z,0.88
2022-07-26T13:52:56.110Z,1.20
2022-07-26T13:55:23.199Z,1.02
2022-07-26T13:57:56.690Z,0.80
2022-07-26T14:00:28.881Z,1.27
2022-07-26T14:02:58.227Z,1.00
2022-07-26T14:05:26.628Z,1.33
2022-07-26T14:07:54.462Z,1.25
2022-07-26T14:10:22.396Z,1.27
2022-07-26T14:12:50.000Z,1.45
2022-07-26T14:15:22.231Z,1.38
2022-07-26T14:17:51.833Z,1.00
2022-07-26T14:20:20.055Z,1.73
2022-07-26T14:22:47.609Z,1.23
2022-07-26T14:25:14.795Z,0.90
2022-07-26T14:27:41.626Z,1.33
2022-07-26T14:30:08.719Z,1.17
2022-07-26T14:32:35.511Z,1.10
2022-07-26T14:35:02.695Z,1.77
2022-07-26T14:37:43.976Z,1.30
2022-07-26T14:40:17.559Z,1.50
2022-07-26T14:42:45.142Z,0.95
2022-07-26T14:45:12.765Z,0.90
2022-07-26T14:47:40.196Z,1.17
2022-07-26T14:50:08.456Z,0.95
2022-07-26T14:52:45.067Z,1.20
2022-07-26T14:55:12.971Z,1.40
2022-07-26T14:57:40.881Z,1.55
2022-07-26T15:00:13.882Z,1.10
2022-07-26T15:02:48.727Z,0.90
2022-07-26T15:05:18.129Z,1.17
2022-07-26T15:07:45.389Z,1.20
2022-07-26T15:10:13.797Z,1.20
2022-07-26T15:12:41.236Z,1.00
2022-07-26T15:15:09.115Z,0.95
2022-07-26T15:17:36.526Z,1.25
2022-07-26T15:20:04.968Z,1.10
2022-07-26T15:22:31.825Z,1.23
2022-07-26T15:24:58.561Z,1.30
2022-07-26T15:27:25.430Z,1.35
2022-07-26T15:29:52.226Z,1.40
2022-07-26T15:32:20.978Z,1.00
2022-07-26T15:34:47.949Z,0.90
2022-07-26T15:37:15.003Z,0.90
2022-07-26T15:39:41.925Z,1.00
2022-07-26T15:42:09.240Z,0.88
2022-07-26T15:44:38.645Z,1.05
2022-07-26T15:47:05.579Z,1.23
2022-07-26T15:49:32.631Z,0.98
2022-07-26T15:52:01.040Z,1.02
2022-07-26T15:54:27.880Z,1.05
2022-07-26T15:56:54.816Z,1.42
2022-07-26T15:59:21.695Z,1.00
2022-07-26T16:01:48.956Z,1.60
2022-07-26T16:04:15.838Z,1.38
2022-07-26T16:06:42.928Z,1.30
2022-07-26T16:09:19.134Z,1.65
2022-07-26T16:11:47.385Z,1.13
2022-07-26T16:14:14.537Z,1.45
2022-07-26T16:16:41.386Z,1.90
2022-07-26T16:19:08.412Z,2.03
2022-07-26T16:21:35.624Z,1.55
2022-07-26T16:24:06.798Z,1.77
2022-07-26T16:26:34.646Z,1.80
2022-07-26T16:29:01.627Z,1.83
2022-07-26T16:31:28.512Z,1.70
2022-07-26T16:33:55.359Z,1.30
2022-07-26T16:36:22.210Z,1.35
2022-07-26T16:38:49.002Z,1.63
2022-07-26T16:41:15.782Z,1.80
2022-07-26T16:43:42.872Z,1.63
2022-07-26T16:46:09.966Z,1.63
2022-07-26T16:48:37.164Z,1.55
2022-07-26T16:51:04.491Z,1.52
2022-07-26T16:53:31.348Z,2.13
2022-07-26T16:55:58.071Z,1.65
2022-07-26T16:58:24.827Z,1.58
2022-07-26T17:00:51.742Z,1.70
2022-07-26T17:03:19.296Z,2.38
2022-07-26T17:05:46.749Z,2.03
2022-07-26T17:08:13.761Z,2.80
2022-07-26T17:10:40.676Z,1.33
2022-07-26T17:13:07.525Z,1.67
2022-07-26T17:15:34.429Z,1.73
2022-07-26T17:18:02.371Z,1.65
2022-07-26T17:20:29.490Z,2.40
2022-07-26T17:22:56.605Z,1.85
2022-07-26T17:25:23.505Z,2.15
2022-07-26T17:27:50.701Z,2.20
2022-07-26T17:30:17.659Z,2.03
2022-07-26T17:32:44.594Z,1.55
2022-07-26T17:35:11.715Z,2.17
2022-07-26T17:37:38.704Z,1.95
2022-07-26T17:40:08.409Z,2.15
2022-07-26T17:42:36.900Z,2.08
2022-07-26T17:45:05.134Z,2.30
2022-07-26T17:47:31.944Z,2.05
2022-07-26T17:52:51.572Z,2.58
2022-07-26T17:55:19.308Z,2.30
2022-07-26T17:57:47.873Z,2.67
2022-07-26T18:00:16.741Z,2.85
2022-07-26T18:02:44.009Z,2.15
2022-07-26T18:05:13.737Z,3.17
2022-07-26T18:07:40.830Z,2.63
2022-07-26T18:10:08.597Z,3.80
2022-07-26T18:12:35.529Z,2.65
2022-07-26T18:15:02.331Z,3.90
2022-07-26T18:17:29.144Z,2.30
2022-07-26T18:19:55.969Z,2.90
2022-07-26T18:22:23.522Z,2.08
2022-07-26T18:24:50.416Z,2.28
2022-07-26T18:27:17.387Z,1.90
2022-07-26T18:29:44.168Z,2.10
2022-07-26T18:32:11.089Z,1.83
2022-07-26T18:34:37.924Z,1.98
2022-07-26T18:37:05.206Z,2.08
2022-07-26T18:39:33.075Z,1.95
2022-07-26T18:42:01.059Z,1.67
2022-07-26T18:44:27.829Z,2.38
2022-07-26T18:46:56.210Z,1.42
2022-07-26T18:49:27.244Z,1.85
2022-07-26T18:52:04.319Z,1.50
2022-07-26T18:54:33.198Z,1.88
2022-07-26T18:56:59.995Z,1.90
2022-07-26T18:59:26.847Z,1.85
2022-07-26T19:01:53.721Z,1.60
2022-07-26T19:04:21.768Z,1.52
2022-07-26T19:06:49.698Z,2.28
2022-07-26T19:09:16.707Z,2.42
2022-07-26T19:11:45.646Z,3.90
2022-07-26T19:14:12.574Z,2.97
2022-07-26T19:16:39.578Z,2.15
2022-07-26T19:19:06.395Z,2.35
2022-07-26T19:21:33.289Z,1.70
2022-07-26T19:24:00.195Z,2.05
2022-07-26T19:26:27.477Z,2.83
2022-07-26T19:28:54.451Z,2.50
2022-07-26T19:31:22.242Z,3.60
2022-07-26T19:33:49.171Z,2.75
2022-07-26T19:36:19.018Z,1.63
2022-07-26T19:38:53.588Z,1.83
2022-07-26T19:41:20.418Z,1.40
2022-07-26T19:43:47.252Z,1.80
2022-07-26T19:46:14.312Z,2.65
2022-07-26T19:48:41.202Z,1.60
2022-07-26T19:51:08.067Z,2.17
2022-07-26T19:53:34.787Z,2.00
2022-07-26T19:56:01.742Z,1.95
2022-07-26T19:58:30.675Z,1.48
2022-07-26T20:00:57.456Z,1.85
2022-07-26T20:03:24.353Z,1.70
2022-07-26T20:05:53.349Z,1.70
2022-07-26T20:08:20.118Z,1.88
2022-07-26T20:10:46.929Z,1.83
2022-07-26T20:13:13.822Z,1.73
2022-07-26T20:15:40.949Z,1.70
2022-07-26T20:18:07.802Z,2.08
2022-07-26T20:20:34.581Z,1.90
2022-07-26T20:23:03.428Z,1.90
2022-07-26T20:25:32.046Z,2.00
2022-07-26T20:27:59.250Z,2.13
2022-07-26T20:30:26.241Z,1.98
2022-07-26T20:32:53.131Z,1.85
2022-07-26T20:35:19.963Z,2.22
2022-07-26T20:37:46.784Z,2.20
2022-07-26T20:40:14.986Z,2.33
2022-07-26T20:42:44.593Z,2.15
2022-07-26T20:45:13.077Z,2.20
2022-07-26T20:47:40.405Z,1.88
2022-07-26T20:50:09.614Z,1.90
2022-07-26T20:52:36.498Z,2.13
2022-07-26T20:55:04.186Z,1.90
2022-07-26T20:57:31.108Z,2.10
2022-07-26T21:00:00.960Z,2.03
2022-07-26T21:02:27.986Z,1.83
2022-07-26T21:04:55.128Z,1.70
2022-07-26T21:07:22.327Z,2.25
2022-07-26T21:09:49.155Z,1.95
2022-07-26T21:12:15.949Z,2.05
2022-07-26T21:14:43.017Z,2.60
2022-07-26T21:17:12.167Z,2.42
2022-07-26T21:19:39.416Z,2.20
2022-07-26T21:22:06.656Z,2.85
2022-07-26T21:24:35.086Z,3.53
2022-07-26T21:27:04.088Z,2.63
2022-07-26T21:29:31.833Z,2.70
2022-07-26T21:32:05.263Z,2.53
2022-07-26T21:34:34.308Z,2.53
2022-07-26T21:37:01.999Z,2.63
2022-07-26T21:39:28.879Z,2.97
2022-07-26T21:41:55.861Z,2.65
2022-07-26T21:44:22.770Z,2.67
2022-07-26T21:46:50.514Z,2.55
2022-07-26T21:49:19.177Z,2.30
2022-07-26T21:51:46.154Z,2.20
2022-07-26T21:54:13.057Z,2.40
2022-07-26T21:56:40.066Z,1.98
2022-07-26T21:59:06.967Z,2.00
2022-07-26T22:01:34.168Z,1.98
2022-07-26T22:04:01.175Z,2.40
2022-07-26T22:06:28.154Z,2.08
2022-07-26T22:08:55.049Z,2.33
2022-07-26T22:11:21.991Z,2.03
2022-07-26T22:13:48.905Z,1.85
2022-07-26T22:16:17.478Z,1.80
2022-07-26T22:18:44.461Z,2.08
2022-07-26T22:21:11.362Z,1.40
2022-07-26T22:23:38.276Z,1.90
2022-07-26T22:26:05.835Z,1.98
2022-07-26T22:28:34.229Z,1.60
2022-07-26T22:31:01.090Z,1.67
2022-07-26T22:33:27.954Z,1.90
2022-07-26T22:35:54.782Z,1.77
2022-07-26T22:38:21.724Z,1.77
2022-07-26T22:40:48.673Z,1.83
2022-07-26T22:43:15.639Z,1.90
2022-07-26T22:45:43.000Z,1.60
2022-07-26T22:48:10.193Z,1.27
2022-07-26T22:50:37.509Z,1.40
2022-07-26T22:53:04.687Z,1.30
2022-07-26T22:55:31.812Z,1.95
2022-07-26T22:57:58.754Z,1.55
2022-07-26T23:00:25.784Z,1.35
2022-07-26T23:02:52.662Z,1.50
2022-07-26T23:05:20.071Z,1.60
2022-07-26T23:07:48.511Z,1.92
2022-07-26T23:10:16.504Z,1.00
2022-07-26T23:12:43.825Z,1.33
2022-07-26T23:15:11.157Z,1.23
2022-07-26T23:17:38.459Z,1.10
2022-07-26T23:20:07.458Z,1.20
2022-07-26T23:22:34.547Z,1.27
2022-07-26T23:25:01.404Z,1.08
2022-07-26T23:27:28.235Z,1.17
2022-07-26T23:29:55.722Z,1.27
2022-07-26T23:32:22.574Z,1.15
2022-07-26T23:34:49.540Z,1.48
2022-07-26T23:37:16.350Z,1.23
2022-07-26T23:39:43.148Z,1.20
2022-07-26T23:42:10.222Z,1.17
2022-07-26T23:44:37.303Z,1.40
2022-07-26T23:47:04.384Z,1.17
2022-07-26T23:49:31.396Z,1.27
2022-07-26T23:51:58.343Z,1.20
2022-07-26T23:54:25.411Z,1.10
2022-07-26T23:56:52.450Z,1.00
2022-07-26T23:59:19.324Z,1.10
